Colfax, Wisconsin
Current Conditions -  °F | °C
As of 12:55 PM on Monday 20 Oct 2014 (Local Time) from KLUM Reporting Station
Broken Clouds Broken Clouds  
Wind Chill: 58°   Ceiling: 3300
Heat Index: 58°   Visibility: 10mi
Dew Point: 42°   Wind: 12mph
Humidity: 56%   Direction: 350°N
Pressure: 29.97"   Gusts: 17mph
Location:  45°N, 91.73°W
Report Text: KLUM 201755Z AUTO 35010G15KT 10SM BKN033 14/05 A2997 RMK AO2 T01420054 10143 20067
Loading
Personal Weather Stations






























Interactive Weather Map
Tropical Storm Tracking
New forecast layout! Learn more

10-Day Weather Forecast

Advertisements
Track Severe Weather on mobile